sensor_id;sensor_type;location;lat;lon;timestamp;pressure;altitude;pressure_sealevel;temperature;humidity
76609;BME280;65928;53.936;27.540;2023-01-19T00:01:21;97253.31;;;2.60;70.59
76609;BME280;65928;53.936;27.540;2023-01-19T00:03:47;97594.97;;;4.44;71.21
76609;BME280;65928;53.936;27.540;2023-01-19T00:06:13;97220.59;;;2.17;71.62
76609;BME280;65928;53.936;27.540;2023-01-19T00:08:38;97600.28;;;4.60;71.28
76609;BME280;65928;53.936;27.540;2023-01-19T00:11:04;97140.28;;;1.90;70.76
76609;BME280;65928;53.936;27.540;2023-01-19T00:13:30;97665.50;;;4.63;71.29
76609;BME280;65928;53.936;27.540;2023-01-19T00:15:56;97615.03;;;4.78;70.32
76609;BME280;65928;53.936;27.540;2023-01-19T00:18:21;97616.75;;;4.62;71.09
76609;BME280;65928;53.936;27.540;2023-01-19T00:20:47;97134.22;;;2.08;69.89
76609;BME280;65928;53.936;27.540;2023-01-19T00:23:14;97504.81;;;4.00;70.24
76609;BME280;65928;53.936;27.540;2023-01-19T00:25:40;97178.72;;;2.03;70.17
76609;BME280;65928;53.936;27.540;2023-01-19T00:28:10;97630.38;;;4.86;70.33
76609;BME280;65928;53.936;27.540;2023-01-19T00:30:36;97523.59;;;3.73;70.73
76609;BME280;65928;53.936;27.540;2023-01-19T00:33:02;97649.13;;;4.77;70.07
76609;BME280;65928;53.936;27.540;2023-01-19T00:35:27;97637.50;;;4.29;70.75
76609;BME280;65928;53.936;27.540;2023-01-19T00:37:55;97299.72;;;2.33;70.46
76609;BME280;65928;53.936;27.540;2023-01-19T00:40:20;97657.28;;;4.88;69.76
76609;BME280;65928;53.936;27.540;2023-01-19T00:42:46;97574.34;;;4.03;69.92
76609;BME280;65928;53.936;27.540;2023-01-19T00:45:22;97294.19;;;2.41;70.13
76609;BME280;65928;53.936;27.540;2023-01-19T00:47:49;97650.69;;;4.45;70.45
76609;BME280;65928;53.936;27.540;2023-01-19T00:50:24;97341.59;;;2.67;69.65
76609;BME280;65928;53.936;27.540;2023-01-19T00:52:52;97653.31;;;4.45;69.57
76609;BME280;65928;53.936;27.540;2023-01-19T00:55:18;97673.50;;;4.24;70.06
76609;BME280;65928;53.936;27.540;2023-01-19T00:57:43;97704.22;;;4.38;70.05
76609;BME280;65928;53.936;27.540;2023-01-19T01:00:12;97688.63;;;4.36;69.50
76609;BME280;65928;53.936;27.540;2023-01-19T01:02:38;97249.78;;;1.87;68.63
76609;BME280;65928;53.936;27.540;2023-01-19T01:05:05;97522.16;;;3.65;68.72
76609;BME280;65928;53.936;27.540;2023-01-19T01:07:31;97665.09;;;4.53;68.50
76609;BME280;65928;53.936;27.540;2023-01-19T01:10:25;97343.75;;;2.39;67.92
76609;BME280;65928;53.936;27.540;2023-01-19T01:12:51;97609.63;;;3.76;68.90
76609;BME280;65928;53.936;27.540;2023-01-19T01:15:17;97714.25;;;4.47;68.65
76609;BME280;65928;53.936;27.540;2023-01-19T01:17:43;97244.28;;;1.74;68.83
76609;BME280;65928;53.936;27.540;2023-01-19T01:20:16;97704.66;;;4.29;68.47
76609;BME280;65928;53.936;27.540;2023-01-19T01:22:47;97286.13;;;1.90;68.95
76609;BME280;65928;53.936;27.540;2023-01-19T01:25:14;97783.50;;;4.57;69.73
76609;BME280;65928;53.936;27.540;2023-01-19T01:27:40;97762.03;;;4.13;69.60
76609;BME280;65928;53.936;27.540;2023-01-19T01:30:07;97274.91;;;1.88;68.72
76609;BME280;65928;53.936;27.540;2023-01-19T01:32:33;97754.69;;;4.40;69.44
76609;BME280;65928;53.936;27.540;2023-01-19T01:34:59;97395.75;;;2.42;69.15
76609;BME280;65928;53.936;27.540;2023-01-19T01:37:24;97284.53;;;1.47;69.18
76609;BME280;65928;53.936;27.540;2023-01-19T01:39:50;97452.44;;;2.37;69.57
76609;BME280;65928;53.936;27.540;2023-01-19T01:42:18;97328.31;;;1.57;69.67
76609;BME280;65928;53.936;27.540;2023-01-19T01:44:52;97624.56;;;3.35;69.87
76609;BME280;65928;53.936;27.540;2023-01-19T01:47:33;97799.63;;;4.11;70.52
76609;BME280;65928;53.936;27.540;2023-01-19T01:50:09;97368.00;;;1.62;69.69
76609;BME280;65928;53.936;27.540;2023-01-19T01:52:38;97766.00;;;4.03;69.96
76609;BME280;65928;53.936;27.540;2023-01-19T01:55:05;97378.63;;;1.98;68.83
76609;BME280;65928;53.936;27.540;2023-01-19T01:57:35;97813.47;;;4.31;69.48
76609;BME280;65928;53.936;27.540;2023-01-19T02:00:02;97839.91;;;4.25;69.68
76609;BME280;65928;53.936;27.540;2023-01-19T02:02:30;97829.47;;;4.25;69.60
76609;BME280;65928;53.936;27.540;2023-01-19T02:05:27;97397.94;;;1.52;69.71
76609;BME280;65928;53.936;27.540;2023-01-19T02:08:14;97867.84;;;4.43;69.79
76609;BME280;65928;53.936;27.540;2023-01-19T02:11:01;97818.34;;;4.02;70.41
76609;BME280;65928;53.936;27.540;2023-01-19T02:13:46;97870.50;;;4.23;70.20
76609;BME280;65928;53.936;27.540;2023-01-19T02:16:13;97764.31;;;3.43;70.97
76609;BME280;65928;53.936;27.540;2023-01-19T02:18:39;97454.00;;;1.61;70.68
76609;BME280;65928;53.936;27.540;2023-01-19T02:23:55;97477.44;;;1.81;70.40
76609;BME280;65928;53.936;27.540;2023-01-19T02:28:52;97423.97;;;1.31;70.64
76609;BME280;65928;53.936;27.540;2023-01-19T02:31:22;97694.81;;;3.01;70.45
76609;BME280;65928;53.936;27.540;2023-01-19T02:33:48;97532.63;;;2.11;70.26
76609;BME280;65928;53.936;27.540;2023-01-19T02:36:15;97906.06;;;4.07;70.08
76609;BME280;65928;53.936;27.540;2023-01-19T02:38:43;97902.22;;;3.96;70.51
76609;BME280;65928;53.936;27.540;2023-01-19T02:41:14;97846.34;;;3.58;70.00
76609;BME280;65928;53.936;27.540;2023-01-19T02:43:41;97610.53;;;1.95;69.30
76609;BME280;65928;53.936;27.540;2023-01-19T02:46:07;97458.50;;;0.91;69.09
76609;BME280;65928;53.936;27.540;2023-01-19T02:48:33;97464.78;;;1.07;68.92
76609;BME280;65928;53.936;27.540;2023-01-19T02:51:01;97483.91;;;1.06;68.17
76609;BME280;65928;53.936;27.540;2023-01-19T02:56:54;97479.84;;;1.22;66.94
76609;BME280;65928;53.936;27.540;2023-01-19T03:05:30;97957.06;;;3.76;67.44
76609;BME280;65928;53.936;27.540;2023-01-19T03:08:12;97965.19;;;3.90;67.31
76609;BME280;65928;53.936;27.540;2023-01-19T03:11:02;97992.53;;;3.59;67.95
76609;BME280;65928;53.936;27.540;2023-01-19T03:16:41;97995.53;;;3.72;67.74
76609;BME280;65928;53.936;27.540;2023-01-19T03:21:54;97983.66;;;3.63;67.76
76609;BME280;65928;53.936;27.540;2023-01-19T03:24:23;97986.41;;;3.39;67.76
76609;BME280;65928;53.936;27.540;2023-01-19T03:26:56;97585.56;;;1.00;67.45
76609;BME280;65928;53.936;27.540;2023-01-19T03:29:27;97817.94;;;2.44;67.50
76609;BME280;65928;53.936;27.540;2023-01-19T03:31:56;98015.56;;;3.50;67.47
76609;BME280;65928;53.936;27.540;2023-01-19T03:34:24;97595.47;;;1.14;67.54
76609;BME280;65928;53.936;27.540;2023-01-19T03:36:56;97592.69;;;0.95;67.91
76609;BME280;65928;53.936;27.540;2023-01-19T03:39:23;98067.34;;;3.84;67.42
76609;BME280;65928;53.936;27.540;2023-01-19T03:41:59;97690.88;;;1.36;67.68
76609;BME280;65928;53.936;27.540;2023-01-19T03:44:28;97682.41;;;1.54;67.45
76609;BME280;65928;53.936;27.540;2023-01-19T03:46:55;97595.31;;;0.95;67.74
76609;BME280;65928;53.936;27.540;2023-01-19T03:49:21;97681.25;;;1.40;67.48
76609;BME280;65928;53.936;27.540;2023-01-19T03:51:46;97615.38;;;1.61;66.41
76609;BME280;65928;53.936;27.540;2023-01-19T03:54:12;98077.75;;;4.48;66.07
76609;BME280;65928;53.936;27.540;2023-01-19T03:56:37;98080.81;;;4.16;66.28
76609;BME280;65928;53.936;27.540;2023-01-19T03:59:03;97617.94;;;1.39;66.07
76609;BME280;65928;53.936;27.540;2023-01-19T04:01:30;97632.53;;;1.43;66.89
76609;BME280;65928;53.936;27.540;2023-01-19T04:03:55;97640.13;;;1.49;66.66
76609;BME280;65928;53.936;27.540;2023-01-19T04:06:21;97692.59;;;1.83;66.60
76609;BME280;65928;53.936;27.540;2023-01-19T04:08:50;98083.13;;;4.24;66.07
76609;BME280;65928;53.936;27.540;2023-01-19T04:11:16;97792.75;;;2.21;66.80
76609;BME280;65928;53.936;27.540;2023-01-19T04:13:42;97669.41;;;1.54;66.46
76609;BME280;65928;53.936;27.540;2023-01-19T04:16:08;97821.13;;;2.52;66.36
76609;BME280;65928;53.936;27.540;2023-01-19T04:18:34;97821.31;;;2.24;66.60
76609;BME280;65928;53.936;27.540;2023-01-19T04:21:02;97742.50;;;1.96;66.15
76609;BME280;65928;53.936;27.540;2023-01-19T04:23:28;98135.22;;;4.07;66.52
76609;BME280;65928;53.936;27.540;2023-01-19T04:25:57;97697.66;;;1.17;67.19
76609;BME280;65928;53.936;27.540;2023-01-19T04:28:23;97681.97;;;1.66;65.85
76609;BME280;65928;53.936;27.540;2023-01-19T04:30:49;97795.75;;;2.11;66.25
76609;BME280;65928;53.936;27.540;2023-01-19T04:33:19;97746.34;;;1.61;66.62
76609;BME280;65928;53.936;27.540;2023-01-19T04:35:46;98221.19;;;4.14;66.54
76609;BME280;65928;53.936;27.540;2023-01-19T04:38:11;98260.22;;;4.42;65.88
76609;BME280;65928;53.936;27.540;2023-01-19T04:40:37;98154.88;;;4.17;65.99
76609;BME280;65928;53.936;27.540;2023-01-19T04:43:03;97672.66;;;1.13;65.73
76609;BME280;65928;53.936;27.540;2023-01-19T04:45:28;97887.13;;;2.29;66.36
76609;BME280;65928;53.936;27.540;2023-01-19T04:47:54;97842.97;;;1.78;67.25
76609;BME280;65928;53.936;27.540;2023-01-19T04:50:19;97761.78;;;1.43;66.60
76609;BME280;65928;53.936;27.540;2023-01-19T04:52:45;97760.84;;;1.45;66.74
76609;BME280;65928;53.936;27.540;2023-01-19T04:55:11;98226.97;;;4.22;66.75
76609;BME280;65928;53.936;27.540;2023-01-19T04:57:36;97784.84;;;1.53;66.62
76609;BME280;65928;53.936;27.540;2023-01-19T05:00:04;98211.31;;;3.99;66.80
76609;BME280;65928;53.936;27.540;2023-01-19T05:02:31;98215.38;;;3.85;66.91
76609;BME280;65928;53.936;27.540;2023-01-19T05:04:56;98175.31;;;3.84;66.58
76609;BME280;65928;53.936;27.540;2023-01-19T05:07:21;98211.28;;;4.22;66.32
76609;BME280;65928;53.936;27.540;2023-01-19T05:09:47;97989.66;;;2.78;66.77
76609;BME280;65928;53.936;27.540;2023-01-19T05:12:12;98161.75;;;3.51;66.67
76609;BME280;65928;53.936;27.540;2023-01-19T05:14:38;97768.91;;;1.38;66.97
76609;BME280;65928;53.936;27.540;2023-01-19T05:17:03;98303.81;;;4.18;66.32
76609;BME280;65928;53.936;27.540;2023-01-19T05:19:29;98305.06;;;4.08;66.50
76609;BME280;65928;53.936;27.540;2023-01-19T05:21:54;98226.28;;;3.96;67.06
76609;BME280;65928;53.936;27.540;2023-01-19T05:24:20;97795.56;;;1.69;65.98
76609;BME280;65928;53.936;27.540;2023-01-19T05:26:45;97792.19;;;1.65;66.38
76609;BME280;65928;53.936;27.540;2023-01-19T05:29:11;98299.47;;;4.19;66.64
76609;BME280;65928;53.936;27.540;2023-01-19T05:31:37;97816.13;;;1.52;66.49
76609;BME280;65928;53.936;27.540;2023-01-19T05:34:03;97826.53;;;1.52;66.34
76609;BME280;65928;53.936;27.540;2023-01-19T05:36:29;97891.75;;;1.98;66.62
76609;BME280;65928;53.936;27.540;2023-01-19T05:38:55;98135.69;;;3.27;66.44
76609;BME280;65928;53.936;27.540;2023-01-19T05:41:21;97900.59;;;1.93;66.43
76609;BME280;65928;53.936;27.540;2023-01-19T05:43:46;97926.56;;;1.96;66.20
76609;BME280;65928;53.936;27.540;2023-01-19T05:46:12;98291.91;;;3.88;66.87
76609;BME280;65928;53.936;27.540;2023-01-19T05:48:37;98364.00;;;3.94;67.04
76609;BME280;65928;53.936;27.540;2023-01-19T05:51:03;97840.00;;;1.38;65.92
76609;BME280;65928;53.936;27.540;2023-01-19T05:53:29;98226.22;;;3.97;65.01
76609;BME280;65928;53.936;27.540;2023-01-19T05:55:59;97982.97;;;2.46;64.95
76609;BME280;65928;53.936;27.540;2023-01-19T05:58:25;97878.03;;;1.68;65.05
76609;BME280;65928;53.936;27.540;2023-01-19T06:00:51;98295.88;;;4.21;64.79
76609;BME280;65928;53.936;27.540;2023-01-19T06:03:16;97979.19;;;2.30;64.80
76609;BME280;65928;53.936;27.540;2023-01-19T06:05:42;98268.41;;;3.87;65.18
76609;BME280;65928;53.936;27.540;2023-01-19T06:08:07;98116.13;;;2.91;65.08
76609;BME280;65928;53.936;27.540;2023-01-19T06:10:32;98343.91;;;4.19;65.71
76609;BME280;65928;53.936;27.540;2023-01-19T06:12:58;98316.31;;;4.10;65.53
76609;BME280;65928;53.936;27.540;2023-01-19T06:15:24;97898.84;;;1.68;64.90
76609;BME280;65928;53.936;27.540;2023-01-19T06:17:49;98177.88;;;3.39;64.85
76609;BME280;65928;53.936;27.540;2023-01-19T06:20:15;98314.75;;;3.82;65.34
76609;BME280;65928;53.936;27.540;2023-01-19T06:22:41;98345.72;;;3.69;66.38
76609;BME280;65928;53.936;27.540;2023-01-19T06:25:07;98312.09;;;3.83;65.48
76609;BME280;65928;53.936;27.540;2023-01-19T06:27:33;97883.63;;;1.32;65.04
76609;BME280;65928;53.936;27.540;2023-01-19T06:29:58;98371.66;;;4.23;65.40
76609;BME280;65928;53.936;27.540;2023-01-19T06:32:24;98385.94;;;4.13;65.38
76609;BME280;65928;53.936;27.540;2023-01-19T06:34:49;97935.31;;;1.15;66.08
76609;BME280;65928;53.936;27.540;2023-01-19T06:37:15;98388.00;;;3.80;66.54
76609;BME280;65928;53.936;27.540;2023-01-19T06:39:41;97945.53;;;0.93;66.79
76609;BME280;65928;53.936;27.540;2023-01-19T06:42:07;98026.50;;;1.67;66.81
76609;BME280;65928;53.936;27.540;2023-01-19T06:44:32;98422.63;;;4.11;65.99
76609;BME280;65928;53.936;27.540;2023-01-19T06:46:58;98400.94;;;4.32;65.14
76609;BME280;65928;53.936;27.540;2023-01-19T06:49:24;98387.50;;;4.18;65.49
76609;BME280;65928;53.936;27.540;2023-01-19T06:51:49;98402.28;;;4.19;65.86
76609;BME280;65928;53.936;27.540;2023-01-19T06:54:15;98400.16;;;4.53;65.13
76609;BME280;65928;53.936;27.540;2023-01-19T06:56:41;97900.91;;;1.59;64.58
76609;BME280;65928;53.936;27.540;2023-01-19T06:59:06;97907.72;;;1.63;64.41
76609;BME280;65928;53.936;27.540;2023-01-19T07:01:32;98386.44;;;4.47;64.64
76609;BME280;65928;53.936;27.540;2023-01-19T07:03:58;98403.63;;;4.77;64.18
76609;BME280;65928;53.936;27.540;2023-01-19T07:06:23;97140.88;;;-2.78;63.58
76609;BME280;65928;53.936;27.540;2023-01-19T07:08:49;97948.41;;;2.16;63.52
76609;BME280;65928;53.936;27.540;2023-01-19T07:11:14;98001.53;;;2.12;64.54
76609;BME280;65928;53.936;27.540;2023-01-19T07:13:40;97948.16;;;1.99;63.48
76609;BME280;65928;53.936;27.540;2023-01-19T07:16:10;97932.03;;;1.62;63.60
76609;BME280;65928;53.936;27.540;2023-01-19T07:18:36;98438.72;;;4.72;63.71
76609;BME280;65928;53.936;27.540;2023-01-19T07:21:03;97987.75;;;2.33;63.24
76609;BME280;65928;53.936;27.540;2023-01-19T07:23:28;98022.06;;;2.21;64.26
76609;BME280;65928;53.936;27.540;2023-01-19T07:25:59;98419.66;;;4.68;64.16
76609;BME280;65928;53.936;27.540;2023-01-19T07:28:28;98448.78;;;4.82;63.74
76609;BME280;65928;53.936;27.540;2023-01-19T07:30:54;97905.94;;;1.65;63.75
76609;BME280;65928;53.936;27.540;2023-01-19T07:33:20;97971.03;;;1.90;63.81
76609;BME280;65928;53.936;27.540;2023-01-19T07:35:47;98444.28;;;4.63;64.24
76609;BME280;65928;53.936;27.540;2023-01-19T07:38:14;97999.84;;;1.85;64.03
76609;BME280;65928;53.936;27.540;2023-01-19T07:40:40;98452.97;;;4.40;64.50
76609;BME280;65928;53.936;27.540;2023-01-19T07:43:06;98184.59;;;2.97;64.59
76609;BME280;65928;53.936;27.540;2023-01-19T07:45:32;98113.59;;;2.38;64.71
76609;BME280;65928;53.936;27.540;2023-01-19T07:47:57;98060.75;;;2.07;65.18
76609;BME280;65928;53.936;27.540;2023-01-19T07:50:23;97965.63;;;1.71;64.86
76609;BME280;65928;53.936;27.540;2023-01-19T07:52:50;98076.09;;;2.16;65.54
76609;BME280;65928;53.936;27.540;2023-01-19T07:55:18;97960.94;;;1.80;64.22
76609;BME280;65928;53.936;27.540;2023-01-19T07:57:47;98420.38;;;4.25;65.23
76609;BME280;65928;53.936;27.540;2023-01-19T08:00:15;97980.94;;;1.52;65.22
76609;BME280;65928;53.936;27.540;2023-01-19T08:02:43;98337.16;;;3.89;64.16
76609;BME280;65928;53.936;27.540;2023-01-19T08:05:09;98290.56;;;3.52;63.80
76609;BME280;65928;53.936;27.540;2023-01-19T08:07:34;98451.47;;;4.08;63.92
76609;BME280;65928;53.936;27.540;2023-01-19T08:10:00;98014.50;;;1.61;64.45
76609;BME280;65928;53.936;27.540;2023-01-19T08:12:25;98465.25;;;4.38;64.54
76609;BME280;65928;53.936;27.540;2023-01-19T08:14:51;98013.09;;;1.51;64.80
76609;BME280;65928;53.936;27.540;2023-01-19T08:17:16;97995.81;;;1.76;64.18
76609;BME280;65928;53.936;27.540;2023-01-19T08:19:42;98464.25;;;4.65;63.76
76609;BME280;65928;53.936;27.540;2023-01-19T08:22:08;98458.66;;;4.74;62.81
76609;BME280;65928;53.936;27.540;2023-01-19T08:24:33;98466.84;;;4.42;63.65
76609;BME280;65928;53.936;27.540;2023-01-19T08:27:00;98529.88;;;4.59;64.05
76609;BME280;65928;53.936;27.540;2023-01-19T08:29:26;98480.88;;;4.87;63.14
76609;BME280;65928;53.936;27.540;2023-01-19T08:31:55;98488.56;;;4.92;62.66
76609;BME280;65928;53.936;27.540;2023-01-19T08:34:23;98044.00;;;2.40;62.72
76609;BME280;65928;53.936;27.540;2023-01-19T08:36:48;98138.94;;;2.84;62.66
76609;BME280;65928;53.936;27.540;2023-01-19T08:39:14;98127.44;;;2.90;62.36
76609;BME280;65928;53.936;27.540;2023-01-19T08:41:39;98510.91;;;5.23;62.44
76609;BME280;65928;53.936;27.540;2023-01-19T08:44:05;98431.69;;;4.72;62.13
76609;BME280;65928;53.936;27.540;2023-01-19T08:46:31;98031.78;;;2.42;61.64
76609;BME280;65928;53.936;27.540;2023-01-19T08:48:56;98462.63;;;4.86;62.10
76609;BME280;65928;53.936;27.540;2023-01-19T08:51:22;98549.56;;;5.17;63.08
76609;BME280;65928;53.936;27.540;2023-01-19T08:53:47;98462.06;;;4.53;63.02
76609;BME280;65928;53.936;27.540;2023-01-19T08:56:13;98201.06;;;2.99;62.61
76609;BME280;65928;53.936;27.540;2023-01-19T08:58:40;98501.34;;;4.76;62.56
76609;BME280;65928;53.936;27.540;2023-01-19T09:01:06;98219.94;;;3.30;62.73
76609;BME280;65928;53.936;27.540;2023-01-19T09:03:33;98530.13;;;5.24;62.56
76609;BME280;65928;53.936;27.540;2023-01-19T09:05:59;98421.06;;;4.53;62.57
76609;BME280;65928;53.936;27.540;2023-01-19T09:08:24;98067.75;;;2.31;62.53
76609;BME280;65928;53.936;27.540;2023-01-19T09:10:50;98113.53;;;2.64;62.35
76609;BME280;65928;53.936;27.540;2023-01-19T09:13:18;98623.88;;;5.14;62.94
76609;BME280;65928;53.936;27.540;2023-01-19T09:15:45;98535.44;;;5.21;62.86
76609;BME280;65928;53.936;27.540;2023-01-19T09:18:13;98142.25;;;2.89;62.29
76609;BME280;65928;53.936;27.540;2023-01-19T09:20:40;98510.81;;;5.26;62.23
76609;BME280;65928;53.936;27.540;2023-01-19T09:23:08;98522.88;;;5.07;63.39
76609;BME280;65928;53.936;27.540;2023-01-19T09:25:36;98084.97;;;2.61;62.66
76609;BME280;65928;53.936;27.540;2023-01-19T09:28:03;98563.25;;;5.25;63.29
76609;BME280;65928;53.936;27.540;2023-01-19T09:30:29;98523.56;;;5.35;62.72
76609;BME280;65928;53.936;27.540;2023-01-19T09:33:01;98422.22;;;4.70;62.38
76609;BME280;65928;53.936;27.540;2023-01-19T09:35:28;98483.59;;;5.52;61.85
76609;BME280;65928;53.936;27.540;2023-01-19T09:37:55;98516.69;;;5.55;62.11
76609;BME280;65928;53.936;27.540;2023-01-19T09:40:21;98471.78;;;5.42;61.41
76609;BME280;65928;53.936;27.540;2023-01-19T09:42:51;98534.25;;;5.74;61.37
76609;BME280;65928;53.936;27.540;2023-01-19T09:47:59;98465.84;;;5.37;62.30
76609;BME280;65928;53.936;27.540;2023-01-19T09:50:34;98527.53;;;5.90;61.40
76609;BME280;65928;53.936;27.540;2023-01-19T09:53:15;98517.00;;;5.69;61.46
76609;BME280;65928;53.936;27.540;2023-01-19T09:55:45;98235.38;;;4.30;61.36
76609;BME280;65928;53.936;27.540;2023-01-19T09:58:15;98151.53;;;3.69;61.46
76609;BME280;65928;53.936;27.540;2023-01-19T10:00:46;98508.72;;;6.01;61.35
76609;BME280;65928;53.936;27.540;2023-01-19T10:03:15;98150.81;;;3.87;61.32
76609;BME280;65928;53.936;27.540;2023-01-19T10:11:35;98516.38;;;6.27;60.49
76609;BME280;65928;53.936;27.540;2023-01-19T10:14:05;98055.38;;;3.78;59.76
76609;BME280;65928;53.936;27.540;2023-01-19T10:22:21;98408.50;;;5.94;60.12
76609;BME280;65928;53.936;27.540;2023-01-19T10:24:53;98477.28;;;6.21;60.43
76609;BME280;65928;53.936;27.540;2023-01-19T10:27:25;98044.66;;;3.62;60.15
76609;BME280;65928;53.936;27.540;2023-01-19T10:29:52;98038.03;;;3.54;60.05
76609;BME280;65928;53.936;27.540;2023-01-19T10:32:26;98083.63;;;3.69;60.04
76609;BME280;65928;53.936;27.540;2023-01-19T10:34:53;98097.25;;;3.98;60.15
76609;BME280;65928;53.936;27.540;2023-01-19T10:37:32;98470.66;;;6.12;60.60
76609;BME280;65928;53.936;27.540;2023-01-19T10:40:21;98457.63;;;5.68;61.47
76609;BME280;65928;53.936;27.540;2023-01-19T10:42:49;98371.00;;;5.07;62.34
76609;BME280;65928;53.936;27.540;2023-01-19T10:45:20;98448.63;;;5.53;62.08
76609;BME280;65928;53.936;27.540;2023-01-19T10:47:47;98455.38;;;5.37;63.02
76609;BME280;65928;53.936;27.540;2023-01-19T10:50:36;98471.50;;;5.05;64.38
76609;BME280;65928;53.936;27.540;2023-01-19T10:53:04;98189.38;;;3.34;64.60
76609;BME280;65928;53.936;27.540;2023-01-19T10:55:35;98008.56;;;2.35;64.59
76609;BME280;65928;53.936;27.540;2023-01-19T10:58:03;98119.38;;;2.97;64.76
76609;BME280;65928;53.936;27.540;2023-01-19T11:00:36;98465.50;;;5.24;64.45
76609;BME280;65928;53.936;27.540;2023-01-19T11:03:28;98471.56;;;5.25;64.08
76609;BME280;65928;53.936;27.540;2023-01-19T11:08:38;98421.53;;;5.09;63.63
76609;BME280;65928;53.936;27.540;2023-01-19T11:11:04;98504.50;;;5.09;64.41
76609;BME280;65928;53.936;27.540;2023-01-19T11:13:32;98047.66;;;2.59;65.05
76609;BME280;65928;53.936;27.540;2023-01-19T11:16:24;98460.53;;;4.95;64.87
76609;BME280;65928;53.936;27.540;2023-01-19T11:18:52;98481.16;;;5.26;64.79
76609;BME280;65928;53.936;27.540;2023-01-19T11:21:22;98006.16;;;2.53;64.36
76609;BME280;65928;53.936;27.540;2023-01-19T11:23:54;98100.94;;;3.25;63.79
76609;BME280;65928;53.936;27.540;2023-01-19T11:29:24;98458.53;;;5.23;63.68
76609;BME280;65928;53.936;27.540;2023-01-19T11:31:51;98557.53;;;5.60;63.21
76609;BME280;65928;53.936;27.540;2023-01-19T11:34:34;98076.31;;;3.55;62.29
76609;BME280;65928;53.936;27.540;2023-01-19T11:37:26;98487.06;;;5.74;62.74
76609;BME280;65928;53.936;27.540;2023-01-19T11:39:54;98026.78;;;2.84;62.93
76609;BME280;65928;53.936;27.540;2023-01-19T11:42:20;98454.69;;;5.75;62.66
76609;BME280;65928;53.936;27.540;2023-01-19T11:47:47;98400.97;;;5.00;63.69
76609;BME280;65928;53.936;27.540;2023-01-19T11:50:41;98384.66;;;5.15;62.82
76609;BME280;65928;53.936;27.540;2023-01-19T11:53:25;98460.25;;;5.24;63.87
76609;BME280;65928;53.936;27.540;2023-01-19T11:56:09;98019.00;;;2.59;64.09
76609;BME280;65928;53.936;27.540;2023-01-19T11:58:40;97924.09;;;1.91;64.65
76609;BME280;65928;53.936;27.540;2023-01-19T12:03:47;98093.78;;;2.82;65.59
76609;BME280;65928;53.936;27.540;2023-01-19T12:06:21;98395.78;;;4.54;66.29
76609;BME280;65928;53.936;27.540;2023-01-19T12:08:54;98020.28;;;2.23;66.62
76609;BME280;65928;53.936;27.540;2023-01-19T12:11:22;98425.97;;;4.63;67.02
76609;BME280;65928;53.936;27.540;2023-01-19T12:13:50;97971.38;;;1.79;67.10
76609;BME280;65928;53.936;27.540;2023-01-19T12:16:25;98354.03;;;4.28;67.18
76609;BME280;65928;53.936;27.540;2023-01-19T12:19:32;98443.72;;;4.78;67.24
76609;BME280;65928;53.936;27.540;2023-01-19T12:21:59;97934.31;;;1.72;67.23
76609;BME280;65928;53.936;27.540;2023-01-19T12:24:29;98443.31;;;4.65;67.76
76609;BME280;65928;53.936;27.540;2023-01-19T12:26:59;98433.28;;;4.78;67.28
76609;BME280;65928;53.936;27.540;2023-01-19T12:29:29;98466.78;;;4.68;67.58
76609;BME280;65928;53.936;27.540;2023-01-19T12:34:42;98492.19;;;4.40;69.09
76609;BME280;65928;53.936;27.540;2023-01-19T12:37:30;98507.16;;;4.36;69.34
76609;BME280;65928;53.936;27.540;2023-01-19T12:40:20;98415.03;;;4.28;69.21
76609;BME280;65928;53.936;27.540;2023-01-19T12:42:46;98040.38;;;1.94;69.89
76609;BME280;65928;53.936;27.540;2023-01-19T12:45:22;97968.31;;;1.40;70.27
76609;BME280;65928;53.936;27.540;2023-01-19T12:47:53;97947.63;;;1.37;70.24
76609;BME280;65928;53.936;27.540;2023-01-19T12:50:21;97948.41;;;1.39;70.03
76609;BME280;65928;53.936;27.540;2023-01-19T12:52:50;98414.16;;;4.28;70.17
76609;BME280;65928;53.936;27.540;2023-01-19T12:55:30;98417.00;;;4.22;70.41
76609;BME280;65928;53.936;27.540;2023-01-19T13:02:55;98044.66;;;1.95;70.25
76609;BME280;65928;53.936;27.540;2023-01-19T13:05:46;98423.50;;;4.35;70.40
76609;BME280;65928;53.936;27.540;2023-01-19T13:11:14;98433.28;;;4.30;70.16
76609;BME280;65928;53.936;27.540;2023-01-19T13:13:42;97949.53;;;1.31;70.62
76609;BME280;65928;53.936;27.540;2023-01-19T13:18:59;98424.69;;;4.02;71.59
76609;BME280;65928;53.936;27.540;2023-01-19T13:24:02;98395.88;;;4.03;71.21
76609;BME280;65928;53.936;27.540;2023-01-19T13:26:38;97903.59;;;1.04;71.76
76609;BME280;65928;53.936;27.540;2023-01-19T13:31:34;98025.06;;;1.85;71.23
76609;BME280;65928;53.936;27.540;2023-01-19T13:34:01;98024.69;;;1.95;70.16
76609;BME280;65928;53.936;27.540;2023-01-19T13:36:35;98403.75;;;4.26;70.57
76609;BME280;65928;53.936;27.540;2023-01-19T13:39:14;97930.88;;;1.18;71.16
76609;BME280;65928;53.936;27.540;2023-01-19T13:41:40;97927.47;;;1.16;71.47
76609;BME280;65928;53.936;27.540;2023-01-19T13:44:13;98407.28;;;3.76;72.05
76609;BME280;65928;53.936;27.540;2023-01-19T13:46:42;98383.84;;;3.73;72.36
76609;BME280;65928;53.936;27.540;2023-01-19T13:49:31;97938.00;;;1.39;71.16
76609;BME280;65928;53.936;27.540;2023-01-19T13:54:57;98430.72;;;4.04;71.77
76609;BME280;65928;53.936;27.540;2023-01-19T13:57:24;98400.44;;;3.72;71.96
76609;BME280;65928;53.936;27.540;2023-01-19T14:05:36;98011.34;;;1.52;71.53
76609;BME280;65928;53.936;27.540;2023-01-19T14:08:12;97926.91;;;0.79;72.86
76609;BME280;65928;53.936;27.540;2023-01-19T14:13:17;97886.78;;;0.29;73.16
76609;BME280;65928;53.936;27.540;2023-01-19T14:15:44;98383.19;;;3.42;73.72
76609;BME280;65928;53.936;27.540;2023-01-19T14:20:39;98322.97;;;2.94;73.92
76609;BME280;65928;53.936;27.540;2023-01-19T14:23:05;98393.31;;;3.25;74.13
76609;BME280;65928;53.936;27.540;2023-01-19T14:25:51;97915.75;;;0.75;73.11
76609;BME280;65928;53.936;27.540;2023-01-19T14:28:35;98435.69;;;3.33;74.03